Terminal Aerodrome Forecast
Issued by NWS

Home | Current Version | Previous Version | Text Only | Print | Product List | Glossary On
Versions: 1 2 3 4 5 6 7 8 9 10 11 12 13 14 15 16 17 18 19 20 21 22 23 24 25 26
000
FTUS45 KGJT 261740
TAFVEL
TAF
KVEL 261740Z 2618/2718 00000KT P6SM FEW200
     FM270200 00000KT P6SM BKN150
     FM270630 30004KT P6SM -SN BKN050 OVC100
     FM271400 36004KT 2SM -SN BKN025 OVC050
     FM271600 VRB03KT 2SM -SN OVC015=

USA.gov is the U.S. government's official web portal to all federal, state and local government web resources and services.